Time;durP1;ratioP1;P1;durP2;ratioP2;P2;SDS_P1;SDS_P2;PMS_P1;PMS_P2;Temp;Humidity;BMP_temperature;BMP_pressure;BME280_temperature;BME280_humidity;BME280_pressure;Samples;Min_cycle;Max_cycle;Signal;HPM_P1;HPM_P2
2022/05/29 00:01:47;;;;;;;;;1.00;1.00;;;;;13.30;100.00;101396.31;5038086;28;45464;-73
2022/05/29 00:04:13;;;;;;;;;1.00;1.00;;;;;13.25;100.00;101394.22;5036808;28;45443;-73
2022/05/29 00:06:41;;;;;;;;;1.33;1.33;;;;;13.22;100.00;101394.63;5037597;28;45671;-75
2022/05/29 00:09:11;;;;;;;;;0.00;0.00;;;;;13.19;100.00;101395.91;5037838;28;45273;-74
2022/05/29 00:11:37;;;;;;;;;1.00;1.00;;;;;13.17;100.00;101392.50;5017038;28;45782;-72
2022/05/29 00:14:03;;;;;;;;;1.00;0.67;;;;;13.13;100.00;101396.72;5034608;28;46683;-75
2022/05/29 00:16:30;;;;;;;;;0.00;0.00;;;;;13.12;100.00;101395.03;5037157;28;45684;-74
2022/05/29 00:18:56;;;;;;;;;0.00;0.00;;;;;13.08;100.00;101377.22;5036981;28;45769;-76
2022/05/29 00:21:22;;;;;;;;;1.67;0.33;;;;;13.05;100.00;101383.16;5037763;28;45672;-75
2022/05/29 00:23:50;;;;;;;;;1.00;1.00;;;;;13.06;100.00;101387.63;5037602;28;45652;-74
2022/05/29 00:26:19;;;;;;;;;2.00;1.00;;;;;13.03;100.00;101383.38;5037179;28;45456;-75
2022/05/29 00:28:45;;;;;;;;;0.67;0.67;;;;;12.98;100.00;101374.03;5037940;28;45397;-75
2022/05/29 00:31:12;;;;;;;;;0.33;0.33;;;;;12.95;100.00;101366.19;5037175;28;45609;-74
2022/05/29 00:33:37;;;;;;;;;0.00;0.00;;;;;12.95;100.00;101380.81;5037491;28;45386;-74
2022/05/29 00:36:03;;;;;;;;;2.00;2.00;;;;;12.94;100.00;101375.53;5037618;28;45467;-75
2022/05/29 00:38:32;;;;;;;;;0.67;0.67;;;;;12.89;100.00;101377.00;5003750;28;45389;-75
2022/05/29 00:41:17;;;;;;;;;1.00;1.00;;;;;12.87;100.00;101381.88;5039123;28;45391;-74
2022/05/29 00:43:43;;;;;;;;;1.00;1.00;;;;;12.84;100.00;101375.91;5030717;28;45436;-76
2022/05/29 00:46:09;;;;;;;;;1.00;1.00;;;;;12.81;100.00;101376.34;5037006;28;45299;-75
2022/05/29 00:48:34;;;;;;;;;1.00;1.00;;;;;12.75;100.00;101372.50;5037284;28;45375;-74
2022/05/29 00:51:05;;;;;;;;;4.00;1.00;;;;;12.72;100.00;101372.91;5036837;28;45360;-75
2022/05/29 00:53:34;;;;;;;;;2.00;2.00;;;;;12.71;100.00;101374.00;5036541;28;45338;-74
2022/05/29 00:56:05;;;;;;;;;0.67;0.67;;;;;12.68;100.00;101369.75;5037119;28;45373;-71
2022/05/29 00:58:31;;;;;;;;;2.33;2.00;;;;;12.65;100.00;101366.53;5036855;28;45817;-75
2022/05/29 01:00:57;;;;;;;;;2.00;2.00;;;;;12.63;100.00;101375.00;5036975;28;45428;-74
2022/05/29 01:03:22;;;;;;;;;2.00;1.00;;;;;12.61;100.00;101379.03;5024388;28;48395;-75
2022/05/29 01:05:48;;;;;;;;;2.00;1.00;;;;;12.53;100.00;101358.91;5037564;28;45302;-76
2022/05/29 01:08:30;;;;;;;;;0.33;0.33;;;;;12.58;100.00;101371.22;5020175;28;45870;-74
2022/05/29 01:11:08;;;;;;;;;3.00;2.00;;;;;12.54;100.00;101371.63;5032209;28;46350;-74
2022/05/29 01:13:42;;;;;;;;;3.00;2.00;;;;;12.50;100.00;101370.34;5038432;28;45703;-75
2022/05/29 01:16:49;;;;;;;;;1.33;1.33;;;;;12.45;100.00;101356.31;5038318;28;45607;-73
2022/05/29 01:19:47;;;;;;;;;1.00;0.33;;;;;12.47;100.00;101365.25;5038484;28;45378;-74
2022/05/29 01:22:21;;;;;;;;;2.00;2.00;;;;;12.42;100.00;101356.75;5037979;28;45686;-74
2022/05/29 01:24:47;;;;;;;;;2.00;2.00;;;;;12.38;100.00;101357.38;5037808;28;45726;-74
2022/05/29 01:27:39;;;;;;;;;0.00;0.00;;;;;12.35;100.00;101362.22;5037394;28;45576;-74
2022/05/29 01:30:22;;;;;;;;;2.00;2.00;;;;;12.32;100.00;101362.66;5036349;28;45370;-74
2022/05/29 01:32:58;;;;;;;;;2.00;1.33;;;;;12.29;100.00;101356.69;5036987;28;46334;-73
2022/05/29 01:35:42;;;;;;;;;1.00;1.00;;;;;12.27;100.00;101359.66;5038146;28;45370;-74
2022/05/29 01:38:15;;;;;;;;;2.00;2.00;;;;;12.23;100.00;101363.88;5037991;28;45650;-75
2022/05/29 01:40:46;;;;;;;;;1.00;1.00;;;;;12.22;100.00;101355.84;5038780;28;45521;-73
2022/05/29 01:43:32;;;;;;;;;4.33;3.00;;;;;12.19;100.00;101357.94;5038242;28;45714;-74
2022/05/29 01:46:05;;;;;;;;;1.33;1.33;;;;;12.11;100.00;101344.38;5036721;28;45788;-75
2022/05/29 01:48:49;;;;;;;;;1.00;1.00;;;;;12.14;100.00;101354.09;5038341;28;45521;-73
2022/05/29 01:51:19;;;;;;;;;1.33;1.33;;;;;12.10;100.00;101359.16;5035693;28;46759;-73
2022/05/29 01:53:52;;;;;;;;;2.33;2.33;;;;;12.05;100.00;101347.94;5036022;28;45479;-75
2022/05/29 01:56:24;;;;;;;;;3.00;1.00;;;;;12.08;100.00;101363.16;5028412;28;45720;-74
2022/05/29 01:59:15;;;;;;;;;1.67;1.00;;;;;12.04;100.00;101348.97;5036355;28;45488;-75
2022/05/29 02:02:00;;;;;;;;;2.00;2.00;;;;;12.03;100.00;101341.78;5037294;28;45327;-74
2022/05/29 02:04:28;;;;;;;;;2.00;2.00;;;;;11.99;100.00;101357.84;5036956;28;45394;-75
2022/05/29 02:09:45;;;;;;;;;1.00;1.00;;;;;11.96;100.00;101355.50;5036699;28;45779;-72
2022/05/29 02:12:16;;;;;;;;;2.00;2.00;;;;;11.95;100.00;101351.03;5037274;28;45406;-74
2022/05/29 02:14:51;;;;;;;;;1.00;1.00;;;;;11.94;100.00;101359.50;5037848;28;46006;-73
2022/05/29 02:17:26;;;;;;;;;1.67;1.00;;;;;11.88;100.00;101350.13;5038762;28;45419;-74
2022/05/29 02:19:58;;;;;;;;;1.33;1.00;;;;;11.89;100.00;101354.56;5039260;28;45391;-74
2022/05/29 02:22:27;;;;;;;;;1.00;1.00;;;;;11.88;100.00;101346.53;5038113;28;45758;-74
2022/05/29 02:25:21;;;;;;;;;2.67;1.67;;;;;11.82;100.00;101349.03;5037695;28;45929;-74
2022/05/29 02:28:06;;;;;;;;;2.00;1.00;;;;;11.71;100.00;101321.28;5029610;28;45415;-74
2022/05/29 02:30:52;;;;;;;;;3.00;1.00;;;;;11.80;100.00;101342.91;5029029;28;45425;-73
2022/05/29 02:33:28;;;;;;;;;1.67;1.67;;;;;11.77;100.00;101346.03;5037717;28;45723;-72
2022/05/29 02:36:20;;;;;;;;;1.00;1.00;;;;;11.75;100.00;101347.28;5037716;28;45337;-74
2022/05/29 02:39:02;;;;;;;;;2.00;2.00;;;;;11.71;100.00;101335.03;5018966;28;47264;-72
2022/05/29 02:42:02;;;;;;;;;1.33;1.00;;;;;11.68;100.00;101343.66;5017651;28;45833;-72
2022/05/29 02:44:45;;;;;;;;;3.00;2.00;;;;;11.65;100.00;101339.44;5035918;28;45437;-74
2022/05/29 02:47:24;;;;;;;;;2.00;2.00;;;;;11.62;100.00;101342.59;5035528;28;45805;-74
2022/05/29 02:50:02;;;;;;;;;2.67;1.33;;;;;11.59;100.00;101332.00;5035036;28;46069;-72
2022/05/29 02:52:28;;;;;;;;;1.67;1.67;;;;;11.57;100.00;101339.56;5035261;28;45433;-73
2022/05/29 02:54:55;;;;;;;;;2.00;1.67;;;;;11.55;100.00;101331.53;5029026;28;45513;-74
2022/05/29 02:57:20;;;;;;;;;3.00;1.33;;;;;11.53;100.00;101336.38;5035063;28;45689;-74
2022/05/29 02:59:51;;;;;;;;;5.00;2.00;;;;;11.47;100.00;101328.94;5035149;28;46379;-72
2022/05/29 03:02:29;;;;;;;;;0.33;0.33;;;;;11.48;100.00;101327.88;5036051;28;45737;-74
2022/05/29 03:05:25;;;;;;;;;1.67;1.67;;;;;11.43;100.00;101328.47;5036577;28;45389;-74
2022/05/29 03:08:13;;;;;;;;;2.00;2.00;;;;;11.44;100.00;101329.34;5037120;28;45733;-74
2022/05/29 03:10:44;;;;;;;;;1.00;1.00;;;;;11.33;100.00;101319.75;5035084;28;46742;-74
2022/05/29 03:13:39;;;;;;;;;2.00;2.00;;;;;11.34;100.00;101331.59;5017512;28;45762;-73
2022/05/29 03:16:14;;;;;;;;;1.67;1.67;;;;;11.30;100.00;101325.63;5037618;28;45349;-74
2022/05/29 03:18:50;;;;;;;;;2.00;2.00;;;;;11.27;100.00;101320.53;5036829;28;45719;-74
2022/05/29 03:21:26;;;;;;;;;2.00;2.00;;;;;11.22;100.00;101323.91;5036272;28;45573;-73
2022/05/29 03:23:57;;;;;;;;;1.00;1.00;;;;;11.22;100.00;101323.91;5037084;28;45425;-73
2022/05/29 03:26:57;;;;;;;;;3.00;2.00;;;;;11.19;100.00;101329.78;5037064;28;45777;-73
2022/05/29 03:29:28;;;;;;;;;2.00;2.00;;;;;11.16;100.00;101321.94;5015413;28;45441;-74
2022/05/29 03:31:55;;;;;;;;;2.00;1.50;;;;;11.16;100.00;101321.13;5014351;28;46251;-73
2022/05/29 03:34:21;;;;;;;;;2.67;2.67;;;;;11.10;100.00;101315.34;5033618;28;45551;-73
2022/05/29 03:36:49;;;;;;;;;1.00;1.00;;;;;11.15;100.00;101325.72;5035009;28;45557;-73
2022/05/29 03:39:15;;;;;;;;;1.00;1.00;;;;;11.12;100.00;101312.41;5032980;28;45369;-73
2022/05/29 03:41:44;;;;;;;;;4.00;1.00;;;;;11.12;100.00;101324.25;5034515;28;45280;-73
2022/05/29 03:44:15;;;;;;;;;1.00;1.00;;;;;11.11;100.00;101322.53;5032539;28;45934;-74
2022/05/29 03:46:42;;;;;;;;;3.67;2.00;;;;;11.09;100.00;101316.41;5036162;28;45657;-75
2022/05/29 03:49:09;;;;;;;;;3.00;2.00;;;;;11.07;100.00;101315.75;5036752;28;45452;-74
2022/05/29 03:51:36;;;;;;;;;2.00;2.00;;;;;11.07;100.00;101317.66;5034287;28;45461;-73
2022/05/29 03:54:02;;;;;;;;;2.00;2.00;;;;;11.02;100.00;101318.25;5034819;28;45493;-73
2022/05/29 03:56:27;;;;;;;;;2.00;2.00;;;;;10.97;100.00;101304.25;5034984;28;45372;-73
2022/05/29 03:58:53;;;;;;;;;2.00;2.00;;;;;11.01;100.00;101312.97;5028212;28;45686;-74
2022/05/29 04:01:19;;;;;;;;;3.00;1.00;;;;;11.02;100.00;101312.75;5035196;28;45318;-73
2022/05/29 04:03:44;;;;;;;;;1.00;1.00;;;;;11.10;100.00;101314.50;5035388;28;45479;-72
2022/05/29 04:06:10;;;;;;;;;3.00;2.00;;;;;11.18;100.00;101311.59;5036862;28;45321;-72
2022/05/29 04:14:06;;;;;;;;;2.67;2.00;;;;;11.84;100.00;101311.22;5036106;28;45362;-74
2022/05/29 04:16:32;;;;;;;;;2.67;2.67;;;;;12.13;100.00;101306.50;5035266;28;45558;-75
2022/05/29 04:18:57;;;;;;;;;2.00;1.00;;;;;12.45;100.00;101312.31;5035794;28;45262;-73
2022/05/29 04:21:22;;;;;;;;;2.33;1.67;;;;;12.79;100.00;101306.91;5036239;28;45605;-75
2022/05/29 04:23:48;;;;;;;;;3.67;1.00;;;;;13.16;100.00;101308.19;5036288;28;45405;-71
2022/05/29 04:26:15;;;;;;;;;2.00;2.00;;;;;13.54;100.00;101304.78;5035544;28;45362;-76
2022/05/29 04:28:41;;;;;;;;;0.00;0.00;;;;;14.00;100.00;101305.72;5033390;28;46816;-74
2022/05/29 04:31:07;;;;;;;;;2.00;2.00;;;;;14.48;100.00;101285.09;5021988;28;46249;-74
2022/05/29 04:33:33;;;;;;;;;2.00;2.00;;;;;15.02;100.00;101295.81;5034401;28;45363;-73
2022/05/29 04:35:59;;;;;;;;;3.33;2.00;;;;;15.54;100.00;101288.09;5034743;28;45617;-73
2022/05/29 04:38:27;;;;;;;;;2.00;2.00;;;;;16.09;100.00;101280.88;5033139;28;47186;-74
2022/05/29 04:40:53;;;;;;;;;2.00;2.00;;;;;16.58;100.00;101267.84;5035327;28;45433;-73
2022/05/29 04:43:19;;;;;;;;;1.00;1.00;;;;;17.19;100.00;101274.13;5035430;28;45712;-72
2022/05/29 04:45:45;;;;;;;;;2.00;1.33;;;;;17.73;100.00;101285.06;5036729;28;45383;-73
2022/05/29 04:48:13;;;;;;;;;3.33;1.67;;;;;18.28;100.00;101282.91;5038521;28;45821;-73
2022/05/29 04:50:39;;;;;;;;;1.67;0.00;;;;;18.85;100.00;101277.34;5026391;28;45424;-74
2022/05/29 04:53:05;;;;;;;;;2.00;1.33;;;;;19.43;100.00;101274.38;5011680;28;45171;-73
2022/05/29 04:55:31;;;;;;;;;0.00;0.00;;;;;20.02;98.81;101275.75;5035953;28;45280;-74
2022/05/29 04:57:56;;;;;;;;;1.00;1.00;;;;;20.48;94.04;101270.72;5038069;28;45660;-72
2022/05/29 05:00:22;;;;;;;;;0.67;0.67;;;;;20.95;90.99;101280.38;5037549;28;45733;-71
2022/05/29 05:02:48;;;;;;;;;0.33;0.33;;;;;21.38;88.56;101272.03;5037281;28;45563;-72
2022/05/29 05:05:14;;;;;;;;;1.00;0.67;;;;;21.78;84.31;101271.50;5037650;28;45453;-73
2022/05/29 05:07:39;;;;;;;;;1.00;1.00;;;;;22.11;83.52;101276.91;5037265;28;45828;-70
2022/05/29 05:10:11;;;;;;;;;1.00;1.00;;;;;22.43;80.33;101275.94;5018840;28;47170;-73
2022/05/29 05:12:37;;;;;;;;;2.33;1.33;;;;;22.65;78.54;101276.53;5037251;28;45311;-73
2022/05/29 05:15:02;;;;;;;;;1.33;0.33;;;;;22.88;77.38;101268.72;5037449;28;45310;-71
2022/05/29 05:17:28;;;;;;;;;3.33;1.00;;;;;23.26;75.56;101274.88;5036651;28;45777;-72
2022/05/29 05:19:53;;;;;;;;;0.00;0.00;;;;;23.73;74.17;101284.88;5036156;28;45651;-72
2022/05/29 05:22:18;;;;;;;;;1.00;1.00;;;;;24.07;71.59;101270.22;5036392;28;45795;-73
2022/05/29 05:24:44;;;;;;;;;1.67;1.67;;;;;24.42;70.32;101273.13;5035608;28;45699;-73
2022/05/29 05:27:09;;;;;;;;;0.33;0.33;;;;;24.71;68.55;101270.41;5036420;28;45627;-75
2022/05/29 05:29:35;;;;;;;;;1.00;1.00;;;;;24.96;67.25;101265.75;5035983;28;45279;-72
2022/05/29 05:32:01;;;;;;;;;0.00;0.00;;;;;25.28;66.68;101265.16;5036198;28;45694;-73
2022/05/29 05:34:27;;;;;;;;;0.00;0.00;;;;;25.60;65.47;101252.53;5036435;28;45490;-73
2022/05/29 05:36:54;;;;;;;;;1.00;1.00;;;;;26.13;62.74;101267.63;5036798;28;45983;-71
2022/05/29 05:39:20;;;;;;;;;1.33;0.67;;;;;26.59;58.92;101264.16;5036023;28;46880;-72
2022/05/29 05:41:46;;;;;;;;;2.67;1.00;;;;;26.97;58.01;101260.50;5035813;28;46939;-71
2022/05/29 05:44:12;;;;;;;;;0.00;0.00;;;;;27.30;55.84;101267.75;5036283;28;45339;-73
2022/05/29 05:46:50;;;;;;;;;0.00;0.00;;;;;27.69;53.83;101271.28;5035939;28;45394;-73
2022/05/29 05:49:21;;;;;;;;;0.67;0.67;;;;;28.04;52.41;101270.91;5034821;28;46129;-73
2022/05/29 05:51:47;;;;;;;;;0.67;0.00;;;;;28.42;50.30;101268.63;5035682;28;45701;-73
2022/05/29 05:54:13;;;;;;;;;0.33;0.33;;;;;28.75;47.56;101270.44;5035007;28;45345;-73
2022/05/29 05:56:47;;;;;;;;;1.00;1.00;;;;;29.18;47.48;101258.63;5034300;28;45344;-72
2022/05/29 05:59:12;;;;;;;;;1.00;1.00;;;;;29.72;44.04;101265.06;5034110;28;45427;-72
2022/05/29 06:01:38;;;;;;;;;0.00;0.00;;;;;30.22;42.04;101258.22;5051412;28;45499;-72
2022/05/29 06:04:04;;;;;;;;;0.50;0.00;;;;;30.55;40.75;101265.47;5035483;28;45456;-72
2022/05/29 06:06:30;;;;;;;;;0.25;0.25;;;;;30.93;38.59;101264.75;5034295;28;45575;-71
2022/05/29 06:08:56;;;;;;;;;2.00;0.00;;;;;31.23;37.22;101253.56;5034896;28;46959;-71
2022/05/29 06:11:23;;;;;;;;;1.00;0.00;;;;;31.42;36.18;101254.00;5034406;28;45489;-71
2022/05/29 06:13:49;;;;;;;;;0.25;0.25;;;;;31.65;35.07;101259.47;5034592;28;45528;-73
2022/05/29 06:16:14;;;;;;;;;10.67;7.00;;;;;31.54;34.39;101258.16;5034594;28;45339;-72
2022/05/29 06:18:40;;;;;;;;;2.00;2.00;;;;;31.60;33.82;101260.47;5034372;28;45596;-73
2022/05/29 06:21:06;;;;;;;;;1.00;1.00;;;;;31.67;33.32;101257.94;5033940;28;45335;-74
2022/05/29 06:23:34;;;;;;;;;0.25;0.25;;;;;31.61;33.28;101261.31;5034330;28;45495;-72
2022/05/29 06:26:04;;;;;;;;;6.00;5.00;;;;;31.68;32.40;101258.78;5034979;28;46153;-72
2022/05/29 06:28:30;;;;;;;;;2.00;0.00;;;;;31.83;31.87;101246.03;5033953;28;46602;-72
2022/05/29 06:30:55;;;;;;;;;0.00;0.00;;;;;31.92;32.36;101237.44;5033379;28;45697;-73
2022/05/29 06:33:20;;;;;;;;;0.25;0.25;;;;;32.17;31.98;101241.34;5031227;28;45331;-73
2022/05/29 06:35:46;;;;;;;;;1.25;0.00;;;;;32.10;30.58;101253.22;5033000;28;45438;-73
2022/05/29 06:38:12;;;;;;;;;0.00;0.00;;;;;31.91;30.95;101250.00;5034074;28;46420;-73
2022/05/29 06:40:42;;;;;;;;;2.75;0.75;;;;;31.80;30.52;101247.53;5033296;28;45918;-73
2022/05/29 06:43:09;;;;;;;;;0.00;0.00;;;;;31.82;30.69;101250.84;5035419;28;45814;-73
2022/05/29 06:45:34;;;;;;;;;0.00;0.00;;;;;32.18;31.03;101245.84;5035489;28;45558;-74
2022/05/29 06:48:00;;;;;;;;;0.00;0.00;;;;;32.61;30.03;101247.50;5034531;28;46027;-73
2022/05/29 06:50:25;;;;;;;;;1.00;0.50;;;;;32.81;28.33;101251.53;5034069;28;45333;-74
2022/05/29 06:52:51;;;;;;;;;0.75;0.00;;;;;32.86;28.39;101259.84;5034619;28;45667;-71
2022/05/29 06:55:16;;;;;;;;;1.00;1.00;;;;;32.76;28.11;101237.56;5034030;28;45666;-73
2022/05/29 06:57:46;;;;;;;;;2.50;0.00;;;;;33.08;28.03;101257.78;5030598;28;45820;-72
2022/05/29 07:08:40;;;;;;;;;1.00;0.75;;;;;32.93;27.50;101247.91;5034857;28;45623;-73
2022/05/29 07:11:09;;;;;;;;;2.00;0.25;;;;;33.23;27.19;101244.94;5032655;28;45678;-74
2022/05/29 07:13:36;;;;;;;;;1.00;0.00;;;;;33.44;26.76;101247.69;4997822;28;45799;-70
2022/05/29 07:16:02;;;;;;;;;1.75;0.50;;;;;33.77;25.80;101239.13;5031242;28;45413;-70
2022/05/29 07:18:29;;;;;;;;;0.00;0.00;;;;;33.96;24.91;101244.19;5014318;28;46533;-69
2022/05/29 07:20:57;;;;;;;;;0.00;0.00;;;;;34.04;24.13;101245.22;5031906;28;45403;-69
2022/05/29 07:23:23;;;;;;;;;0.00;0.00;;;;;34.39;23.92;101247.59;5014598;28;45443;-69
2022/05/29 07:25:48;;;;;;;;;0.00;0.00;;;;;34.63;23.94;101248.69;5031634;28;45835;-71
2022/05/29 07:28:14;;;;;;;;;0.00;0.00;;;;;34.45;23.52;101243.28;5031720;28;46525;-69
2022/05/29 07:30:40;;;;;;;;;0.25;0.00;;;;;34.53;23.67;101238.63;5031781;28;45795;-69
2022/05/29 07:33:06;;;;;;;;;0.75;0.00;;;;;35.25;23.78;101234.97;5032266;28;45433;-74
2022/05/29 07:35:31;;;;;;;;;0.00;0.00;;;;;36.33;23.00;101231.94;5032075;28;45863;-72
2022/05/29 07:37:57;;;;;;;;;0.00;0.00;;;;;36.83;20.78;101237.09;5031603;28;46521;-74
2022/05/29 07:40:23;;;;;;;;;2.00;0.00;;;;;35.91;22.30;101235.47;5030902;28;45497;-73
2022/05/29 07:45:33;;;;;;;;;31.00;26.00;;;;;34.09;23.90;101236.47;5032030;28;45542;-73
2022/05/29 07:47:59;;;;;;;;;0.33;0.33;;;;;32.66;25.09;101240.81;5032391;28;45472;-73
2022/05/29 07:50:25;;;;;;;;;0.00;0.00;;;;;32.03;27.31;101238.72;5032088;28;45568;-73
2022/05/29 07:52:52;;;;;;;;;0.00;0.00;;;;;33.12;26.66;101230.31;5032191;28;45343;-73
2022/05/29 07:55:18;;;;;;;;;0.00;0.00;;;;;34.38;24.30;101237.38;5031695;28;45706;-69
2022/05/29 07:57:44;;;;;;;;;1.00;1.00;;;;;35.18;23.67;101234.78;5032159;28;45447;-70
2022/05/29 08:00:12;;;;;;;;;0.00;0.00;;;;;36.13;21.39;101222.50;5032386;28;45737;-72
2022/05/29 08:02:38;;;;;;;;;0.00;0.00;;;;;35.30;22.05;101242.44;5032741;28;45634;-71
2022/05/29 08:05:06;;;;;;;;;0.00;0.00;;;;;34.63;22.87;101232.44;5032284;28;45453;-70
2022/05/29 08:07:31;;;;;;;;;0.00;0.00;;;;;35.56;21.77;101233.38;5031956;28;46357;-69
2022/05/29 08:09:57;;;;;;;;;0.25;0.25;;;;;36.37;21.50;101224.28;5032877;28;45637;-73
2022/05/29 08:12:23;;;;;;;;;0.25;0.00;;;;;37.30;20.85;101220.84;5032623;28;45894;-72
2022/05/29 08:14:48;;;;;;;;;0.00;0.00;;;;;38.02;20.36;101224.91;5031181;28;45988;-71
2022/05/29 08:17:14;;;;;;;;;0.25;0.00;;;;;39.11;19.80;101225.91;5030284;28;46026;-75
2022/05/29 08:19:40;;;;;;;;;0.00;0.00;;;;;39.80;18.97;101215.88;5031464;28;45536;-74
2022/05/29 08:22:05;;;;;;;;;0.00;0.00;;;;;40.47;17.50;101219.59;5034987;28;45591;-73
2022/05/29 08:32:59;;;;;;;;;0.00;0.00;;;;;37.92;17.12;101217.78;5033327;28;45806;-73
2022/05/29 08:35:24;;;;;;;;;0.00;0.00;;;;;35.43;19.35;101220.38;5021365;28;46224;-72
2022/05/29 08:37:50;;;;;;;;;0.25;0.25;;;;;33.32;21.02;101207.88;5031338;28;45630;-73
2022/05/29 08:40:15;;;;;;;;;0.50;0.50;;;;;33.51;22.16;101210.97;5033056;28;45558;-70
2022/05/29 08:42:41;;;;;;;;;0.00;0.00;;;;;34.51;21.82;101204.00;5026826;28;45824;-71
2022/05/29 08:45:08;;;;;;;;;0.25;0.25;;;;;35.32;21.06;101203.00;5029194;28;45743;-72
2022/05/29 08:47:36;;;;;;;;;1.00;1.00;;;;;36.15;20.50;101202.97;5017323;28;46097;-72
2022/05/29 08:50:03;;;;;;;;;2.00;1.00;;;;;35.35;20.75;101210.81;5026782;28;45601;-72
2022/05/29 08:52:40;;;;;;;;;0.50;0.50;;;;;33.47;22.32;101198.66;5036524;28;45480;-71
2022/05/29 08:55:13;;;;;;;;;0.00;0.00;;;;;31.92;24.27;101192.06;5031557;28;45659;-72
2022/05/29 08:57:48;;;;;;;;;55.67;44.33;;;;;32.06;24.67;101186.97;5033045;28;45724;-73
2022/05/29 09:00:24;;;;;;;;;1.00;1.00;;;;;33.77;23.52;101189.91;5044407;28;45389;-71
2022/05/29 09:03:16;;;;;;;;;2.50;2.50;;;;;35.60;23.33;101182.09;5030811;28;45771;-72
2022/05/29 09:05:51;;;;;;;;;0.00;0.00;;;;;37.83;19.23;101182.91;5029369;28;45734;-71
2022/05/29 09:08:48;;;;;;;;;0.25;0.25;;;;;38.50;18.51;101179.31;5014451;28;47316;-71
2022/05/29 09:11:31;;;;;;;;;0.00;0.00;;;;;37.07;20.21;101178.75;5022379;28;45957;-70
2022/05/29 09:14:35;;;;;;;;;1.25;0.25;;;;;35.55;21.17;101186.06;5036824;28;45541;-71
2022/05/29 09:17:05;;;;;;;;;1.00;1.00;;;;;34.26;23.01;101189.84;4989515;28;46003;-71
2022/05/29 09:19:47;;;;;;;;;0.00;0.00;;;;;32.97;23.68;101182.69;5013431;28;46146;-72
2022/05/29 09:22:14;;;;;;;;;2.00;1.00;;;;;31.89;24.39;101187.94;5027828;28;45813;-72
2022/05/29 09:24:45;;;;;;;;;1.50;0.00;;;;;30.80;25.69;101188.16;5023508;28;45942;-69
2022/05/29 09:27:11;;;;;;;;;1.00;0.25;;;;;29.89;27.53;101181.47;5021870;28;45590;-71
2022/05/29 09:29:37;;;;;;;;;1.00;0.50;;;;;29.09;30.31;101182.31;5024905;28;46211;-71
2022/05/29 09:32:14;;;;;;;;;0.00;0.00;;;;;28.35;33.59;101170.34;5012478;28;45477;-72
2022/05/29 09:34:42;;;;;;;;;0.00;0.00;;;;;27.79;32.30;101180.06;5026841;28;45705;-71
2022/05/29 09:37:18;;;;;;;;;1.00;0.00;;;;;27.06;33.13;101172.19;5032050;28;45608;-72
2022/05/29 09:39:52;;;;;;;;;0.00;0.00;;;;;26.70;35.51;101164.41;5033266;28;45493;-70
2022/05/29 09:42:44;;;;;;;;;0.00;0.00;;;;;26.48;33.35;101165.00;5030343;28;45911;-71
2022/05/29 09:45:45;;;;;;;;;1.00;0.00;;;;;26.48;36.91;101165.00;5042990;28;45806;-71
2022/05/29 09:51:27;;;;;;;;;0.25;0.00;;;;;28.60;27.22;101159.59;5033671;28;46420;-73
2022/05/29 09:53:57;;;;;;;;;3.00;0.00;;;;;28.95;26.67;101165.44;5033160;28;46606;-73
2022/05/29 09:56:32;;;;;;;;;1.00;1.00;;;;;29.95;26.21;101166.00;5030361;28;45616;-72
2022/05/29 09:59:03;;;;;;;;;0.50;0.00;;;;;30.96;24.32;101165.78;5033755;28;45442;-71
2022/05/29 10:01:36;;;;;;;;;0.00;0.00;;;;;31.98;23.42;101148.97;5026401;28;46023;-74
2022/05/29 10:04:05;;;;;;;;;1.50;0.00;;;;;33.31;22.79;101146.50;5034454;28;45893;-71
2022/05/29 10:06:43;;;;;;;;;2.00;2.00;;;;;34.86;21.33;101137.00;5033862;28;45401;-72
2022/05/29 10:09:16;;;;;;;;;2.67;1.33;;;;;35.31;20.97;101141.44;5045944;28;46749;-71
2022/05/29 10:11:45;;;;;;;;;0.00;0.00;;;;;34.46;21.11;101135.88;5029927;28;46422;-72
2022/05/29 10:14:38;;;;;;;;;0.00;0.00;;;;;34.39;21.71;101141.38;5031521;28;45667;-73
2022/05/29 10:17:15;;;;;;;;;0.75;0.75;;;;;33.19;23.96;101135.94;5031941;28;45302;-72
2022/05/29 10:19:46;;;;;;;;;0.25;0.25;;;;;32.07;24.80;101137.56;5033746;28;45784;-72
2022/05/29 10:22:27;;;;;;;;;0.67;0.67;;;;;31.09;25.18;101140.44;5032816;28;46014;-71
2022/05/29 10:24:54;;;;;;;;;2.75;1.00;;;;;29.88;27.21;101143.03;5032605;28;45316;-74
2022/05/29 10:27:36;;;;;;;;;0.75;0.00;;;;;28.84;30.44;101133.84;5033351;28;45487;-71
2022/05/29 10:30:09;;;;;;;;;1.00;1.00;;;;;27.89;31.30;101137.56;5031701;28;45673;-72
2022/05/29 10:32:37;;;;;;;;;2.33;2.00;;;;;27.16;32.34;101134.56;5030224;28;45912;-73
2022/05/29 10:35:15;;;;;;;;;1.00;1.00;;;;;26.50;35.55;101140.25;5033152;28;45757;-74
2022/05/29 10:37:43;;;;;;;;;1.00;0.67;;;;;25.89;35.69;101133.59;5029723;28;45540;-74
2022/05/29 10:40:28;;;;;;;;;0.00;0.00;;;;;25.23;36.96;101138.06;5013261;28;46074;-72
2022/05/29 10:43:03;;;;;;;;;1.33;1.00;;;;;24.45;35.65;101138.78;5010006;28;47016;-71
2022/05/29 10:45:41;;;;;;;;;0.67;0.00;;;;;23.81;36.30;101135.00;5031456;28;45570;-73
2022/05/29 10:48:12;;;;;;;;;0.33;0.33;;;;;23.42;39.72;101130.97;5012663;28;45798;-70
2022/05/29 10:50:59;;;;;;;;;0.00;0.00;;;;;23.09;41.04;101124.94;5015034;28;46842;-72
2022/05/29 10:53:33;;;;;;;;;1.00;1.00;;;;;22.89;44.19;101127.78;5028216;28;45945;-72
2022/05/29 10:56:11;;;;;;;;;0.00;0.00;;;;;22.72;48.04;101128.94;5032114;28;45481;-71
2022/05/29 10:59:06;;;;;;;;;3.00;3.00;;;;;22.66;50.56;101130.03;5030796;28;45706;-69
2022/05/29 11:04:32;;;;;;;;;2.00;2.00;;;;;22.48;56.46;101120.25;5039141;28;45566;-73
2022/05/29 11:07:27;;;;;;;;;2.00;2.00;;;;;22.42;54.11;101120.53;5022131;28;45436;-72
2022/05/29 11:09:59;;;;;;;;;1.00;1.00;;;;;22.53;53.03;101117.47;5033046;28;45329;-75
2022/05/29 11:12:39;;;;;;;;;1.00;1.00;;;;;22.68;50.58;101118.56;5030621;28;45792;-73
2022/05/29 11:15:21;;;;;;;;;0.67;0.67;;;;;22.73;49.22;101107.38;5030344;28;47159;-73
2022/05/29 11:18:25;;;;;;;;;0.67;0.67;;;;;22.97;48.10;101110.41;5031796;28;45418;-73
2022/05/29 11:21:17;;;;;;;;;2.67;0.67;;;;;23.24;48.13;101101.66;5019944;28;45757;-74
2022/05/29 11:23:46;;;;;;;;;0.00;0.00;;;;;23.48;41.98;101097.38;5018883;28;45785;-77
2022/05/29 11:26:30;;;;;;;;;0.00;0.00;;;;;23.84;39.89;101100.81;5015168;28;45642;-74
2022/05/29 11:29:40;;;;;;;;;0.00;0.00;;;;;24.20;40.34;101089.38;5021465;28;45288;-77
2022/05/29 11:32:24;;;;;;;;;2.00;1.00;;;;;24.71;38.60;101090.09;4953015;28;45830;-74
2022/05/29 11:35:24;;;;;;;;;2.00;0.67;;;;;24.94;38.14;101077.19;5017718;28;46036;-73
2022/05/29 11:37:53;;;;;;;;;3.00;1.00;;;;;25.18;37.95;101088.41;5021211;28;46340;-73
2022/05/29 11:40:18;;;;;;;;;1.00;1.00;;;;;25.38;37.22;101090.19;5011464;28;45787;-73
2022/05/29 11:42:59;;;;;;;;;0.00;0.00;;;;;25.44;36.36;101072.13;5025173;28;45911;-74
2022/05/29 11:51:27;;;;;;;;;1.33;0.33;;;;;25.40;37.45;101057.00;5021848;28;45641;-74
2022/05/29 11:54:15;;;;;;;;;0.33;0.33;;;;;25.30;38.60;101051.53;5019983;28;45768;-73
2022/05/29 11:57:08;;;;;;;;;1.00;1.00;;;;;24.98;32.16;101053.84;5022917;28;45474;-73
2022/05/29 11:59:36;;;;;;;;;0.50;0.50;;;;;24.58;30.54;101050.38;5021984;28;46535;-74
2022/05/29 12:02:15;;;;;;;;;1.00;1.00;;;;;24.09;30.48;101040.16;5011832;28;45862;-74
2022/05/29 12:04:53;;;;;;;;;0.25;0.25;;;;;23.74;30.81;101042.91;5024108;28;45716;-74
2022/05/29 12:07:27;;;;;;;;;0.00;0.00;;;;;23.53;30.83;101036.59;5018299;28;45431;-74
2022/05/29 12:09:59;;;;;;;;;2.00;1.00;;;;;23.29;32.11;101032.81;5018680;28;45660;-72
2022/05/29 12:12:33;;;;;;;;;0.50;0.50;;;;;23.07;34.35;101025.63;5021157;28;45675;-76
2022/05/29 12:15:03;;;;;;;;;0.00;0.00;;;;;23.00;34.90;101014.72;5021226;28;46146;-74
2022/05/29 12:17:46;;;;;;;;;1.33;1.00;;;;;23.11;35.24;101023.09;5021762;28;45564;-73
2022/05/29 12:20:19;;;;;;;;;4.00;1.00;;;;;23.06;36.09;101021.97;5017107;28;45802;-73
2022/05/29 12:23:10;;;;;;;;;1.00;1.00;;;;;23.04;38.13;101009.38;5024065;28;45375;-74
2022/05/29 12:26:10;;;;;;;;;1.00;1.00;;;;;23.24;37.38;101020.53;5026136;28;45747;-73